Time;durP1;ratioP1;P1;durP2;ratioP2;P2;SDS_P1;SDS_P2;PMS_P1;PMS_P2;Temp;Humidity;BMP_temperature;BMP_pressure;BME280_temperature;BME280_humidity;BME280_pressure;Samples;Min_cycle;Max_cycle;Signal;HPM_P1;HPM_P2
2021/05/09 00:01:11;;;;;;;6.95;4.47;;;;;;;13.65;100.00;100508.34;3570388;40;20049;-62
2021/05/09 00:03:37;;;;;;;9.27;4.95;;;;;;;13.62;100.00;100508.69;3570034;40;20053;-61
2021/05/09 00:06:03;;;;;;;6.22;4.00;;;;;;;13.62;100.00;100510.53;3571347;40;20388;-60
2021/05/09 00:08:29;;;;;;;8.60;4.85;;;;;;;13.64;100.00;100511.22;3570862;40;20041;-62
2021/05/09 00:10:55;;;;;;;6.55;4.72;;;;;;;13.65;100.00;100508.34;3570999;40;20072;-61
2021/05/09 00:13:21;;;;;;;8.13;4.13;;;;;;;13.60;100.00;100501.72;3569817;40;20056;-60
2021/05/09 00:15:49;;;;;;;8.55;4.78;;;;;;;13.41;100.00;100495.59;3571088;40;20052;-61
2021/05/09 00:18:15;;;;;;;8.68;4.90;;;;;;;13.40;100.00;100493.06;3570403;40;20049;-63
2021/05/09 00:20:41;;;;;;;7.05;4.43;;;;;;;13.35;100.00;100484.59;3570982;40;20061;-63
2021/05/09 00:23:08;;;;;;;7.38;4.80;;;;;;;13.37;100.00;100482.56;3570258;40;20147;-61
2021/05/09 00:25:34;;;;;;;7.63;4.75;;;;;;;13.40;100.00;100476.84;3570104;40;20330;-60
2021/05/09 00:28:00;;;;;;;5.90;4.20;;;;;;;13.24;100.00;100488.41;3571056;40;20044;-61
2021/05/09 00:30:26;;;;;;;8.93;4.45;;;;;;;13.24;100.00;100481.13;3570498;40;20045;-62
2021/05/09 00:32:53;;;;;;;6.78;4.55;;;;;;;13.28;100.00;100487.91;3570136;40;20130;-63
2021/05/09 00:35:19;;;;;;;6.72;4.40;;;;;;;13.46;100.00;100476.19;3570647;40;20071;-63
2021/05/09 00:37:45;;;;;;;7.38;4.80;;;;;;;13.37;100.00;100477.16;3571037;40;20092;-60
2021/05/09 00:40:11;;;;;;;6.28;3.95;;;;;;;13.25;100.00;100472.03;3570445;40;20419;-63
2021/05/09 00:42:37;;;;;;;8.80;5.15;;;;;;;13.31;100.00;100465.97;3570116;40;20375;-60
2021/05/09 00:45:05;;;;;;;5.95;4.10;;;;;;;13.28;100.00;100466.28;3571121;40;20074;-60
2021/05/09 00:47:31;;;;;;;7.38;4.47;;;;;;;13.22;100.00;100464.25;3570885;40;20490;-60
2021/05/09 00:49:58;;;;;;;7.65;4.72;;;;;;;13.13;100.00;100466.06;3570832;40;20061;-61
2021/05/09 00:52:25;;;;;;;6.50;4.72;;;;;;;13.11;100.00;100467.22;3569770;40;20064;-61
2021/05/09 00:54:53;;;;;;;5.85;4.57;;;;;;;13.12;100.00;100458.13;3570296;40;20566;-60
2021/05/09 00:57:21;;;;;;;6.10;4.32;;;;;;;13.12;100.00;100463.53;3570647;40;20053;-61
2021/05/09 00:59:50;;;;;;;8.25;4.85;;;;;;;13.09;100.00;100455.75;3570376;40;20049;-63
2021/05/09 01:02:16;;;;;;;;;;;;;;;13.02;100.00;100457.41;3569764;40;20054;-60
2021/05/09 01:04:44;;;;;;;8.10;4.50;;;;;;;13.07;100.00;100455.06;3570706;40;20008;-61
2021/05/09 01:07:12;;;;;;;7.75;4.85;;;;;;;12.93;100.00;100453.81;3570415;40;20331;-60
2021/05/09 01:09:38;;;;;;;6.15;4.65;;;;;;;12.90;100.00;100449.59;3571143;40;20041;-61
2021/05/09 01:12:05;;;;;;;5.38;4.40;;;;;;;12.90;100.00;100448.75;3570747;40;20617;-61
2021/05/09 01:14:31;;;;;;;8.27;4.80;;;;;;;12.82;100.00;100438.72;3571608;40;20131;-64
2021/05/09 01:16:57;;;;;;;7.18;4.82;;;;;;;12.81;100.00;100428.94;3572321;40;20049;-63
2021/05/09 01:19:23;;;;;;;10.35;5.30;;;;;;;12.80;100.00;100438.06;3571525;40;20400;-64
2021/05/09 01:21:50;;;;;;;6.07;4.47;;;;;;;12.87;100.00;100432.88;3571685;40;20151;-61
2021/05/09 01:24:16;;;;;;;7.82;4.97;;;;;;;12.88;100.00;100424.59;3572255;40;20047;-61
2021/05/09 01:26:42;;;;;;;8.10;4.88;;;;;;;12.91;100.00;100426.97;3571869;40;20041;-61
2021/05/09 01:29:08;;;;;;;8.75;5.18;;;;;;;12.83;100.00;100435.03;3570922;40;20527;-61
2021/05/09 01:31:34;;;;;;;9.88;5.50;;;;;;;12.83;100.00;100417.97;3572010;40;20168;-61
2021/05/09 01:34:00;;;;;;;9.20;4.85;;;;;;;12.79;100.00;100420.16;3572334;40;20351;-60
2021/05/09 01:36:26;;;;;;;8.57;4.80;;;;;;;12.77;100.00;100414.06;3571484;40;20057;-60
2021/05/09 01:38:54;;;;;;;9.68;5.15;;;;;;;12.73;100.00;100412.69;3571614;40;20053;-61
2021/05/09 01:41:20;;;;;;;7.05;5.18;;;;;;;12.74;100.00;100417.09;3572140;40;20053;-60
2021/05/09 01:43:46;;;;;;;7.68;4.68;;;;;;;12.59;100.00;100424.97;3571942;40;20076;-60
2021/05/09 01:46:12;;;;;;;8.02;4.88;;;;;;;12.67;100.00;100416.03;3572303;40;20053;-61
2021/05/09 01:48:38;;;;;;;8.95;4.72;;;;;;;12.67;100.00;100410.66;3571615;40;20041;-62
2021/05/09 01:51:04;;;;;;;7.22;5.07;;;;;;;12.74;100.00;100409.00;3571282;40;20037;-62
2021/05/09 01:53:30;;;;;;;6.03;4.78;;;;;;;12.72;100.00;100402.91;3572224;40;20052;-63
2021/05/09 01:55:57;;;;;;;10.68;4.95;;;;;;;12.60;100.00;100407.72;3572022;40;20045;-60
2021/05/09 01:58:23;;;;;;;10.13;5.07;;;;;;;12.61;100.00;100402.16;3571412;40;20412;-61
2021/05/09 02:00:49;;;;;;;7.47;4.72;;;;;;;12.65;100.00;100401.84;3572432;40;20048;-63
2021/05/09 02:03:15;;;;;;;9.57;5.07;;;;;;;12.65;100.00;100396.44;3571244;40;20435;-61
2021/05/09 02:05:41;;;;;;;7.78;4.85;;;;;;;12.64;100.00;100389.38;3572420;40;20037;-61
2021/05/09 02:08:07;;;;;;;8.27;4.95;;;;;;;12.66;100.00;100393.63;3571570;40;20033;-61
2021/05/09 02:10:33;;;;;;;10.57;5.30;;;;;;;12.61;100.00;100390.53;3571879;40;20400;-60
2021/05/09 02:13:00;;;;;;;9.95;5.00;;;;;;;12.68;100.00;100383.47;3571647;40;20057;-61
2021/05/09 02:15:26;;;;;;;7.03;4.43;;;;;;;12.64;100.00;100383.97;3571140;40;20291;-61
2021/05/09 02:17:52;;;;;;;9.48;5.07;;;;;;;12.54;100.00;100379.50;3572283;40;20049;-61
2021/05/09 02:20:18;;;;;;;7.47;4.57;;;;;;;12.55;100.00;100377.69;3571476;40;20052;-62
2021/05/09 02:22:44;;;;;;;9.15;4.93;;;;;;;12.56;100.00;100372.13;3571153;40;20059;-61
2021/05/09 02:25:10;;;;;;;7.82;4.85;;;;;;;12.59;100.00;100374.50;3571817;40;20041;-60
2021/05/09 02:27:36;;;;;;;8.63;5.13;;;;;;;12.66;100.00;100371.16;3567473;40;20061;-63
2021/05/09 02:30:05;;;;;;;10.65;5.15;;;;;;;12.59;100.00;100370.97;3571344;40;20056;-62
2021/05/09 02:32:31;;;;;;;8.23;4.68;;;;;;;12.54;100.00;100373.28;3571589;40;20059;-64
2021/05/09 02:34:57;;;;;;;10.57;5.07;;;;;;;12.48;100.00;100380.16;3571433;40;20359;-61
2021/05/09 02:37:23;;;;;;;7.18;4.82;;;;;;;12.43;100.00;100366.31;3570846;40;20292;-64
2021/05/09 02:39:49;;;;;;;10.50;4.80;;;;;;;12.44;100.00;100362.63;3571342;40;20065;-61
2021/05/09 02:42:15;;;;;;;10.32;5.40;;;;;;;12.40;100.00;100366.66;3571458;40;20056;-61
2021/05/09 02:44:41;;;;;;;6.55;4.63;;;;;;;12.46;100.00;100365.16;3570905;40;20108;-59
2021/05/09 02:47:08;;;;;;;10.00;4.97;;;;;;;12.44;100.00;100362.63;3571036;40;20073;-61
2021/05/09 02:49:34;;;;;;;7.93;4.88;;;;;;;12.46;100.00;100359.75;3570285;40;20037;-62
2021/05/09 02:52:00;;;;;;;7.65;4.45;;;;;;;12.47;100.00;100373.09;3570689;40;20135;-62
2021/05/09 02:54:26;;;;;;;6.80;4.50;;;;;;;12.48;100.00;100369.38;3569562;40;20044;-62
2021/05/09 02:56:52;;;;;;;8.43;4.60;;;;;;;12.39;100.00;100365.78;3571451;40;20381;-62
2021/05/09 02:59:18;;;;;;;9.85;4.93;;;;;;;12.30;100.00;100358.66;3571016;40;20041;-61
2021/05/09 03:01:44;;;;;;;7.10;4.78;;;;;;;12.38;100.00;100357.84;3571653;40;20037;-61
2021/05/09 03:04:11;;;;;;;9.48;4.53;;;;;;;12.35;100.00;100360.88;3570639;40;20045;-61
2021/05/09 03:06:37;;;;;;;8.13;4.60;;;;;;;12.37;100.00;100345.38;3570993;40;20055;-63
2021/05/09 03:09:04;;;;;;;7.97;4.72;;;;;;;12.25;100.00;100350.19;3571018;40;20053;-61
2021/05/09 03:11:30;;;;;;;10.82;4.82;;;;;;;12.24;100.00;100352.03;3570795;40;20061;-62
2021/05/09 03:13:57;;;;;;;7.45;5.40;;;;;;;12.21;100.00;100344.25;3570064;40;20065;-62
2021/05/09 03:16:23;;;;;;;13.48;5.07;;;;;;;12.23;100.00;100339.56;3570573;40;20050;-62
2021/05/09 03:18:50;;;;;;;8.50;4.50;;;;;;;12.30;100.00;100333.53;3571468;40;20063;-63
2021/05/09 03:21:16;;;;;;;8.20;4.60;;;;;;;12.26;100.00;100333.84;3570738;40;20042;-62
2021/05/09 03:23:43;;;;;;;7.07;4.57;;;;;;;12.33;100.00;100333.22;3570012;40;20090;-61
2021/05/09 03:26:09;;;;;;;9.77;4.68;;;;;;;12.22;100.00;100337.88;3570733;40;20057;-60
2021/05/09 03:28:34;;;;;;;10.48;4.93;;;;;;;12.20;100.00;100337.16;3570896;40;20147;-64
2021/05/09 03:31:00;;;;;;;7.50;4.95;;;;;;;12.18;100.00;100336.50;3571406;40;20053;-60
2021/05/09 03:33:26;;;;;;;8.98;5.25;;;;;;;12.09;100.00;100337.47;3569951;40;20052;-61
2021/05/09 03:35:52;;;;;;;10.73;5.00;;;;;;;12.08;100.00;100339.28;3557046;40;540960;-61
2021/05/09 03:38:19;;;;;;;8.02;4.78;;;;;;;12.11;100.00;100340.00;3570743;40;20049;-64
2021/05/09 03:40:45;;;;;;;7.45;4.82;;;;;;;12.16;100.00;100333.13;3571417;40;20106;-61
2021/05/09 03:43:12;;;;;;;9.80;5.03;;;;;;;12.16;100.00;100346.59;3570991;40;20048;-61
2021/05/09 03:45:38;;;;;;;9.68;4.80;;;;;;;12.11;100.00;100340.81;3571416;40;20040;-61
2021/05/09 03:48:04;;;;;;;9.65;4.78;;;;;;;12.14;100.00;100343.22;3570932;40;20051;-62
2021/05/09 03:50:31;;;;;;;7.60;5.05;;;;;;;12.24;100.00;100346.63;3570872;40;20059;-61
2021/05/09 03:52:57;;;;;;;8.50;5.18;;;;;;;12.19;100.00;100342.72;3571361;40;20169;-62
2021/05/09 03:55:23;;;;;;;7.22;5.22;;;;;;;12.20;100.00;100344.41;3570814;40;20324;-61
2021/05/09 03:57:49;;;;;;;8.50;5.63;;;;;;;12.06;100.00;100341.31;3569748;40;20065;-63
2021/05/09 04:00:17;;;;;;;12.57;5.50;;;;;;;12.07;100.00;100344.84;3569967;40;20063;-61
2021/05/09 04:02:43;;;;;;;9.00;5.50;;;;;;;12.13;100.00;100346.94;3571073;40;20045;-61
2021/05/09 04:05:10;;;;;;;9.05;5.53;;;;;;;12.20;100.00;100345.25;3571360;40;20060;-61
2021/05/09 04:07:36;;;;;;;7.82;5.38;;;;;;;12.15;100.00;100336.81;3566951;40;20057;-61
2021/05/09 04:10:03;;;;;;;8.40;5.30;;;;;;;12.18;100.00;100338.34;3571421;40;20073;-61
2021/05/09 04:12:30;;;;;;;8.98;5.63;;;;;;;12.19;100.00;100338.19;3571275;40;20044;-64
2021/05/09 04:14:56;;;;;;;9.93;5.30;;;;;;;12.18;100.00;100335.66;3571465;40;20136;-62
2021/05/09 04:17:22;;;;;;;7.85;5.55;;;;;;;12.27;100.00;100327.44;3571329;40;20065;-61
2021/05/09 04:19:48;;;;;;;7.72;5.15;;;;;;;12.26;100.00;100328.47;3570356;40;20313;-63
2021/05/09 04:22:14;;;;;;;8.63;4.93;;;;;;;12.26;100.00;100320.38;3570756;40;20087;-61
2021/05/09 04:24:40;;;;;;;8.48;5.40;;;;;;;12.36;100.00;100328.31;3570786;40;20087;-63
2021/05/09 04:27:06;;;;;;;8.20;5.03;;;;;;;12.34;100.00;100329.50;3570425;40;20056;-62
2021/05/09 04:29:33;;;;;;;11.35;7.15;;;;;;;12.31;100.00;100319.00;3570938;40;20048;-61
2021/05/09 04:31:59;;;;;;;9.15;4.78;;;;;;;12.29;100.00;100315.63;3569948;40;20099;-61
2021/05/09 04:34:25;;;;;;;10.07;5.40;;;;;;;12.33;100.00;100319.72;3569908;40;20061;-61
2021/05/09 04:36:51;;;;;;;9.77;5.15;;;;;;;12.41;100.00;100326.00;3571136;40;20423;-61
2021/05/09 04:39:17;;;;;;;11.57;5.53;;;;;;;12.44;100.00;100322.13;3570900;40;20423;-62
2021/05/09 04:41:43;;;;;;;9.18;5.15;;;;;;;12.53;100.00;100312.19;3571157;40;20091;-61
2021/05/09 04:44:09;;;;;;;8.07;5.15;;;;;;;12.55;100.00;100316.44;3569899;40;20037;-60
2021/05/09 04:46:36;;;;;;;8.88;4.93;;;;;;;12.65;100.00;100316.31;3566858;40;20323;-62
2021/05/09 04:49:02;;;;;;;8.90;5.60;;;;;;;12.88;100.00;100315.69;3571503;40;20067;-61
2021/05/09 04:51:28;;;;;;;7.28;5.10;;;;;;;12.91;100.00;100313.53;3572424;40;20375;-64
2021/05/09 04:53:54;;;;;;;6.68;5.00;;;;;;;12.95;100.00;100314.88;3571935;40;20057;-61
2021/05/09 04:56:20;;;;;;;7.50;5.15;;;;;;;13.00;100.00;100308.13;3572091;40;20546;-62
2021/05/09 05:01:13;;;;;;;8.60;5.10;;;;;;;13.11;100.00;100318.63;3558610;23;20058;-63
2021/05/09 05:03:40;;;;;;;8.13;5.00;;;;;;;13.28;100.00;100323.06;3561581;40;20070;-64
2021/05/09 05:06:07;;;;;;;8.02;4.57;;;;;;;13.39;100.00;100318.38;3560916;40;20482;-62
2021/05/09 05:08:34;;;;;;;9.95;5.22;;;;;;;13.39;100.00;100321.06;3562535;40;20046;-62
2021/05/09 05:11:00;;;;;;;9.55;4.60;;;;;;;13.46;100.00;100324.78;3562101;40;20387;-63
2021/05/09 05:13:28;;;;;;;9.18;4.75;;;;;;;13.48;100.00;100333.56;3561055;40;20049;-63
2021/05/09 05:15:55;;;;;;;8.82;5.07;;;;;;;13.53;100.00;100325.81;3561559;40;20053;-61
2021/05/09 05:18:22;;;;;;;6.60;4.63;;;;;;;13.53;100.00;100331.22;3561874;40;20079;-60
2021/05/09 05:20:50;;;;;;;6.55;5.00;;;;;;;13.49;100.00;100324.44;3561981;40;20070;-61
2021/05/09 05:23:17;;;;;;;8.18;4.70;;;;;;;13.49;100.00;100319.03;3560997;40;20057;-60
2021/05/09 05:25:43;;;;;;;7.50;4.63;;;;;;;13.58;100.00;100318.03;3562105;40;20191;-62
2021/05/09 05:28:09;;;;;;;6.20;4.38;;;;;;;13.54;100.00;100316.66;3560185;40;20038;-61
2021/05/09 05:30:36;;;;;;;6.90;4.45;;;;;;;13.56;100.00;100317.38;3561146;40;20065;-61
2021/05/09 05:33:02;;;;;;;8.88;4.97;;;;;;;13.67;100.00;100319.72;3561813;40;20430;-62
2021/05/09 05:35:29;;;;;;;7.72;5.13;;;;;;;13.71;100.00;100322.94;3561533;40;20053;-61
2021/05/09 05:37:56;;;;;;;8.27;4.85;;;;;;;13.76;100.00;100327.81;3561082;40;20055;-61
2021/05/09 05:40:23;;;;;;;8.07;4.80;;;;;;;13.76;100.00;100328.66;3560978;40;20068;-62
2021/05/09 05:42:49;;;;;;;7.45;4.93;;;;;;;13.86;100.00;100325.78;3561615;40;20050;-64
2021/05/09 05:45:16;;;;;;;10.20;4.95;;;;;;;13.96;100.00;100322.91;3561003;40;20038;-61
2021/05/09 05:47:42;;;;;;;5.90;4.68;;;;;;;13.96;100.00;100326.44;3562886;40;20327;-62
2021/05/09 05:50:10;;;;;;;7.20;4.57;;;;;;;14.16;100.00;100316.09;3561028;40;20073;-61
2021/05/09 05:52:36;;;;;;;9.05;4.13;;;;;;;14.22;100.00;100313.72;3561615;40;20092;-62
2021/05/09 05:55:04;;;;;;;6.63;4.60;;;;;;;14.26;100.00;100315.06;3560714;40;20040;-63
2021/05/09 05:57:30;;;;;;;6.82;4.47;;;;;;;14.37;100.00;100312.00;3561961;40;20104;-62
2021/05/09 05:59:56;;;;;;;7.65;4.82;;;;;;;14.49;100.00;100312.44;3561317;40;20414;-63
2021/05/09 06:02:22;;;;;;;6.28;4.68;;;;;;;14.58;100.00;100307.84;3560784;40;20424;-62
2021/05/09 06:04:48;;;;;;;6.43;4.07;;;;;;;14.63;100.00;100309.00;3561599;40;20150;-64
2021/05/09 06:07:14;;;;;;;6.95;4.43;;;;;;;14.69;100.00;100311.03;3561753;40;20055;-64
2021/05/09 06:09:40;;;;;;;11.25;4.75;;;;;;;14.83;100.00;100300.47;3561683;40;20046;-62
2021/05/09 06:12:08;;;;;;;6.63;4.38;;;;;;;15.00;100.00;100296.66;3560128;40;20049;-61
2021/05/09 06:14:34;;;;;;;7.70;4.57;;;;;;;15.05;100.00;100298.81;3561086;40;20065;-63
2021/05/09 06:17:00;;;;;;;8.18;4.20;;;;;;;15.21;100.00;100303.28;3561208;40;20050;-61
2021/05/09 06:19:26;;;;;;;8.20;4.20;;;;;;;15.29;100.00;100299.66;3561586;40;20060;-61
2021/05/09 06:21:52;;;;;;;5.95;4.07;;;;;;;15.37;100.00;100299.59;3561738;40;20065;-61
2021/05/09 06:24:18;;;;;;;5.53;4.10;;;;;;;15.47;100.00;100294.75;3560793;40;20073;-63
2021/05/09 06:26:44;;;;;;;6.75;3.78;;;;;;;15.48;100.00;100295.63;3561222;40;20051;-62
2021/05/09 06:29:11;;;;;;;6.90;3.97;;;;;;;15.52;100.00;100300.50;3561576;40;20037;-62
2021/05/09 06:31:37;;;;;;;6.00;4.03;;;;;;;15.59;100.00;100295.16;3559222;40;20051;-62
2021/05/09 06:34:03;;;;;;;9.48;3.97;;;;;;;15.57;100.00;100289.09;3561173;40;20061;-62
2021/05/09 06:36:29;;;;;;;6.25;3.60;;;;;;;15.62;100.00;100280.41;3561832;40;20050;-63
2021/05/09 06:38:55;;;;;;;8.60;4.05;;;;;;;15.71;100.00;100280.16;3562147;40;20077;-62
2021/05/09 06:41:22;;;;;;;5.80;3.75;;;;;;;15.77;100.00;100284.00;3561082;40;20072;-63
2021/05/09 06:43:52;;;;;;;8.63;4.05;;;;;;;15.74;100.00;100271.66;3561123;40;20120;-62
2021/05/09 06:46:19;;;;;;;6.20;3.50;;;;;;;15.81;100.00;100276.38;3560988;40;20423;-61
2021/05/09 06:48:45;;;;;;;6.60;4.20;;;;;;;15.90;100.00;100270.69;3562308;40;20049;-62
2021/05/09 06:51:11;;;;;;;5.05;4.10;;;;;;;15.87;100.00;100267.47;3559335;40;20038;-61
2021/05/09 06:53:37;;;;;;;6.18;4.25;;;;;;;15.90;100.00;100269.81;3561605;40;20049;-61
2021/05/09 06:56:04;;;;;;;6.65;3.25;;;;;;;15.95;100.00;100267.41;3561181;40;20045;-63
2021/05/09 06:58:31;;;;;;;7.25;4.03;;;;;;;16.00;100.00;100259.53;3561242;40;20588;-61
2021/05/09 07:00:57;;;;;;;7.10;3.70;;;;;;;16.04;100.00;100255.41;3560596;40;20142;-61
2021/05/09 07:03:24;;;;;;;4.88;3.40;;;;;;;16.08;100.00;100261.34;3559223;40;20048;-63
2021/05/09 07:05:50;;;;;;;5.13;3.42;;;;;;;16.13;100.00;100264.31;3560794;40;20052;-64
2021/05/09 07:08:16;;;;;;;6.13;3.88;;;;;;;16.16;100.00;100257.69;3561618;40;20057;-61
2021/05/09 07:10:42;;;;;;;6.63;3.38;;;;;;;16.25;100.00;100249.25;3561104;40;20483;-60
2021/05/09 07:13:08;;;;;;;7.97;3.30;;;;;;;16.31;100.00;100249.53;3559878;40;20041;-61
2021/05/09 07:15:35;;;;;;;4.93;3.30;;;;;;;16.38;100.00;100250.44;3556841;40;20037;-63
2021/05/09 07:18:05;;;;;;;6.70;2.97;;;;;;;16.35;100.00;100240.81;3561127;40;20073;-63
2021/05/09 07:20:35;;;;;;;6.05;3.55;;;;;;;16.46;100.00;100248.47;3559787;40;20412;-61
2021/05/09 07:23:01;;;;;;;6.82;3.15;;;;;;;16.60;100.00;100237.78;3557616;40;20052;-62
2021/05/09 07:25:28;;;;;;;5.38;2.83;;;;;;;16.75;100.00;100252.13;3561334;40;20042;-63
2021/05/09 07:28:03;;;;;;;4.60;2.78;;;;;;;16.78;100.00;100251.78;3561122;40;20058;-63
2021/05/09 07:30:29;;;;;;;3.85;2.42;;;;;;;16.89;100.00;100241.47;3560424;40;20127;-61
2021/05/09 07:32:55;;;;;;;4.32;2.70;;;;;;;17.03;100.00;100226.97;3560872;40;20073;-62
2021/05/09 07:35:21;;;;;;;3.78;2.70;;;;;;;17.30;100.00;100233.50;3560911;40;20052;-61
2021/05/09 07:37:48;;;;;;;6.10;2.95;;;;;;;17.47;100.00;100222.34;3560584;40;20052;-65
2021/05/09 07:40:14;;;;;;;4.20;2.10;;;;;;;17.58;100.00;100220.94;3561547;40;20080;-62
2021/05/09 07:42:40;;;;;;;6.20;2.40;;;;;;;17.86;100.00;100232.66;3560074;40;20052;-62
2021/05/09 07:45:13;;;;;;;5.43;2.70;;;;;;;18.09;100.00;100231.56;3561201;40;20073;-62
2021/05/09 07:47:39;;;;;;;4.65;2.63;;;;;;;18.25;100.00;100224.13;3562037;40;20408;-62
2021/05/09 07:50:08;;;;;;;5.72;2.33;;;;;;;18.36;100.00;100227.13;3561918;40;20100;-64
2021/05/09 07:52:34;;;;;;;3.85;2.10;;;;;;;18.37;100.00;100217.03;3560450;40;20061;-61
2021/05/09 07:55:01;;;;;;;4.10;2.28;;;;;;;18.58;100.00;100201.59;3561130;40;20049;-63
2021/05/09 07:57:27;;;;;;;3.85;2.10;;;;;;;18.79;100.00;100198.75;3560753;40;20060;-61
2021/05/09 07:59:53;;;;;;;3.97;2.20;;;;;;;19.02;100.00;100192.94;3559613;40;20151;-61
2021/05/09 08:02:20;;;;;;;4.65;1.80;;;;;;;19.17;100.00;100184.56;3623515;22;20049;-64
2021/05/09 08:04:46;;;;;;;3.45;1.75;;;;;;;19.22;100.00;100176.56;3550368;40;20062;-62
2021/05/09 08:07:12;;;;;;;5.72;1.83;;;;;;;19.34;100.00;100173.22;3550013;40;20500;-60
2021/05/09 08:09:38;;;;;;;2.70;1.88;;;;;;;19.77;100.00;100162.66;3550082;40;20065;-64
2021/05/09 08:12:06;;;;;;;2.78;1.75;;;;;;;19.89;93.73;100157.41;3551398;40;20062;-64
2021/05/09 08:14:32;;;;;;;3.13;1.83;;;;;;;19.95;93.30;100159.28;3550377;40;20048;-63
2021/05/09 08:16:58;;;;;;;2.80;1.50;;;;;;;19.91;93.66;100158.03;3550618;40;20046;-61
2021/05/09 08:19:24;;;;;;;2.38;1.75;;;;;;;19.97;94.08;100150.88;3550782;40;20050;-62
2021/05/09 08:21:50;;;;;;;5.30;1.70;;;;;;;20.10;90.78;100141.78;3550399;40;20520;-61
2021/05/09 08:24:17;;;;;;;3.97;1.67;;;;;;;20.29;90.91;100138.13;3549962;40;20045;-63
2021/05/09 08:26:43;;;;;;;3.10;1.63;;;;;;;20.48;92.24;100121.84;3549583;40;20071;-62
2021/05/09 08:29:10;;;;;;;3.38;1.58;;;;;;;20.75;87.82;100118.94;3550109;40;20050;-64
2021/05/09 08:31:36;;;;;;;2.25;1.35;;;;;;;20.89;83.75;100115.06;3544596;40;20096;-62
2021/05/09 08:34:02;;;;;;;5.63;1.60;;;;;;;21.17;83.95;100111.00;3548688;40;20309;-63
2021/05/09 08:36:28;;;;;;;2.83;1.75;;;;;;;21.29;84.45;100109.22;3548141;40;20046;-63
2021/05/09 08:38:54;;;;;;;1.98;1.45;;;;;;;21.49;78.30;100119.97;3549019;40;20065;-64
2021/05/09 08:41:21;;;;;;;2.83;1.40;;;;;;;21.65;77.18;100118.56;3547440;40;20053;-63
2021/05/09 08:43:47;;;;;;;3.53;1.40;;;;;;;22.11;77.71;100129.22;3548615;40;20042;-62
2021/05/09 08:46:14;;;;;;;4.30;1.23;;;;;;;22.22;73.96;100122.97;3548720;40;20074;-62
2021/05/09 08:48:41;;;;;;;4.05;1.55;;;;;;;22.78;77.20;100139.28;3550401;40;20058;-63
2021/05/09 08:51:07;;;;;;;2.42;1.42;;;;;;;22.93;67.39;100139.69;3549150;40;20054;-61
2021/05/09 08:53:34;;;;;;;2.60;1.50;;;;;;;22.72;63.55;100144.63;3549737;40;20053;-62
2021/05/09 08:56:00;;;;;;;5.18;1.50;;;;;;;22.61;67.48;100153.66;3548321;40;20058;-62
2021/05/09 08:58:26;;;;;;;3.55;1.45;;;;;;;22.63;67.13;100148.78;3548118;40;20048;-62
2021/05/09 09:00:52;;;;;;;3.22;1.40;;;;;;;22.73;71.75;100153.69;3549100;40;20046;-62
2021/05/09 09:03:20;;;;;;;4.15;1.48;;;;;;;23.05;67.20;100154.25;3549670;40;20308;-62
2021/05/09 09:05:47;;;;;;;1.80;1.40;;;;;;;23.10;61.46;100150.84;3547840;40;20056;-62
2021/05/09 09:08:15;;;;;;;2.08;1.20;;;;;;;22.80;64.59;100150.84;3547718;40;20061;-61
2021/05/09 09:10:44;;;;;;;2.97;1.60;;;;;;;22.84;67.07;100152.06;3548133;40;20127;-62
2021/05/09 09:13:22;;;;;;;5.68;1.40;;;;;;;22.65;68.88;100154.88;3548505;40;20058;-62
2021/05/09 09:15:53;;;;;;;2.67;1.50;;;;;;;22.38;68.14;100143.44;3548013;40;20050;-62
2021/05/09 09:18:36;;;;;;;2.25;1.30;;;;;;;22.38;69.81;100133.31;3546718;40;20357;-62
2021/05/09 09:21:22;;;;;;;3.38;1.60;;;;;;;22.16;71.39;100143.06;3550703;40;20042;-62
2021/05/09 09:23:49;;;;;;;2.72;1.33;;;;;;;22.14;73.33;100131.50;3550903;40;20413;-61
2021/05/09 09:26:29;;;;;;;2.95;1.50;;;;;;;21.75;73.99;100125.44;3596611;23;20060;-61
2021/05/09 09:28:55;;;;;;;3.20;1.50;;;;;;;21.88;76.19;100122.53;3560704;40;20054;-62
2021/05/09 09:31:42;;;;;;;3.45;1.60;;;;;;;21.88;75.77;100111.59;3559789;40;20402;-63
2021/05/09 09:34:09;;;;;;;2.88;1.60;;;;;;;22.48;75.43;100115.44;3560305;40;20097;-63
2021/05/09 09:36:36;;;;;;;4.18;1.90;;;;;;;22.96;74.44;100109.00;3562181;40;20052;-62
2021/05/09 09:39:03;;;;;;;3.58;1.63;;;;;;;23.31;75.12;100101.94;3561604;40;20093;-61
2021/05/09 09:41:29;;;;;;;3.72;1.67;;;;;;;23.06;71.99;100109.25;3556469;40;20053;-62
2021/05/09 09:44:04;;;;;;;3.65;1.65;;;;;;;22.95;73.17;100104.59;3561654;40;20046;-63
2021/05/09 09:46:32;;;;;;;4.65;1.65;;;;;;;23.28;75.08;100108.72;3561433;40;20409;-67
2021/05/09 09:48:58;;;;;;;2.85;2.20;;;;;;;22.72;74.93;100106.22;3561317;40;20402;-63
2021/05/09 09:51:26;;;;;;;2.60;1.75;;;;;;;22.65;77.95;100107.41;3560408;40;20312;-62
2021/05/09 09:53:53;;;;;;;2.95;2.10;;;;;;;23.02;75.78;100110.81;3561278;40;20359;-62
2021/05/09 09:56:21;;;;;;;5.07;1.83;;;;;;;22.77;77.72;100099.22;3559499;40;20101;-63
2021/05/09 09:58:55;;;;;;;2.17;1.70;;;;;;;22.58;76.62;100088.31;3558716;40;20058;-63
2021/05/09 10:01:25;;;;;;;4.93;2.00;;;;;;;22.61;79.04;100087.81;3561736;40;20050;-64
2021/05/09 10:03:52;;;;;;;3.40;1.70;;;;;;;22.88;76.71;100082.75;3560652;40;20098;-62
2021/05/09 10:06:19;;;;;;;4.78;1.90;;;;;;;23.28;76.37;100067.53;3560370;40;20108;-62
2021/05/09 10:08:46;;;;;;;3.80;1.92;;;;;;;23.53;75.99;100049.97;3561277;40;20057;-62
2021/05/09 10:11:13;;;;;;;4.18;1.85;;;;;;;23.58;72.73;100041.81;3559756;40;20131;-63
2021/05/09 10:13:39;;;;;;;3.38;1.90;;;;;;;23.86;73.62;100027.31;3560031;40;20412;-61
2021/05/09 10:16:06;;;;;;;4.50;1.70;;;;;;;24.06;74.69;100020.56;3560798;40;20065;-63
2021/05/09 10:18:33;;;;;;;3.60;1.92;;;;;;;23.80;69.69;100018.09;3560388;40;20111;-62
2021/05/09 10:21:00;;;;;;;4.55;1.98;;;;;;;24.18;72.59;100020.50;3560553;40;20085;-62
2021/05/09 10:23:26;;;;;;;3.95;1.73;;;;;;;24.61;72.10;100013.56;3559477;40;20094;-64
2021/05/09 10:25:54;;;;;;;4.10;1.98;;;;;;;23.89;72.64;100020.50;3559097;40;20255;-64
2021/05/09 10:28:22;;;;;;;5.27;1.93;;;;;;;23.76;75.51;100025.16;3560698;40;20050;-64
2021/05/09 10:30:51;;;;;;;2.45;1.70;;;;;;;23.37;76.40;100035.06;3560714;40;20471;-62
2021/05/09 10:33:45;;;;;;;3.25;1.90;;;;;;;24.02;74.96;100035.84;3559371;40;20075;-65
2021/05/09 10:36:38;;;;;;;4.53;2.08;;;;;;;24.43;70.36;100031.94;3560404;40;20613;-63
2021/05/09 10:39:18;;;;;;;5.53;2.15;;;;;;;24.49;72.10;100039.19;3559566;40;20392;-62
2021/05/09 10:42:17;;;;;;;4.40;1.90;;;;;;;24.54;71.18;100038.44;3560417;40;20145;-62
2021/05/09 10:44:46;;;;;;;3.05;1.80;;;;;;;24.87;68.39;100046.97;3558824;40;20127;-62
2021/05/09 10:47:16;;;;;;;3.63;1.80;;;;;;;24.86;70.33;100050.84;3558974;40;20293;-64
2021/05/09 10:50:21;;;;;;;4.80;1.92;;;;;;;24.69;71.57;100032.41;3561977;40;20061;-63
2021/05/09 10:52:49;;;;;;;3.65;2.58;;;;;;;24.20;71.46;100018.31;3560819;40;20050;-62
2021/05/09 10:55:46;;;;;;;4.20;1.98;;;;;;;24.18;75.21;100006.75;3560780;40;20053;-63
2021/05/09 10:58:14;;;;;;;2.80;2.17;;;;;;;24.21;73.89;100003.50;3561030;40;20486;-65
2021/05/09 11:01:27;;;;;;;2.90;2.00;;;;;;;23.99;75.54;100001.44;3561495;40;20407;-65
2021/05/09 11:09:42;;;;;;;4.22;2.15;;;;;;;24.03;76.15;99999.88;3616573;23;20059;-63
2021/05/09 11:12:08;;;;;;;4.95;2.10;;;;;;;23.99;75.45;99989.63;3581719;40;20060;-64
2021/05/09 11:14:39;;;;;;;4.03;2.50;;;;;;;23.86;76.38;99988.81;3577561;40;20406;-63
2021/05/09 11:17:13;;;;;;;4.40;2.72;;;;;;;23.91;75.22;99988.09;3581685;40;20065;-63
2021/05/09 11:19:44;;;;;;;3.95;2.20;;;;;;;24.16;76.55;99981.41;3581763;40;20371;-63
2021/05/09 11:22:11;;;;;;;4.03;2.42;;;;;;;24.29;77.47;99970.94;3581237;40;20053;-65
2021/05/09 11:24:39;;;;;;;5.22;2.30;;;;;;;23.99;78.98;99970.38;3580368;40;21164;-64
2021/05/09 11:27:08;;;;;;;4.95;2.35;;;;;;;23.84;79.50;99979.97;3579968;40;20486;-60
2021/05/09 11:29:39;;;;;;;4.95;2.15;;;;;;;23.71;79.66;99981.09;3580878;40;20099;-61